sensor_id;sensor_type;location;lat;lon;timestamp;pressure;altitude;pressure_sealevel;temperature;humidity
11413;BME280;5762;43.256;26.960;2023-05-24T00:02:22;99497.64;;;14.19;100.00
11413;BME280;5762;43.256;26.960;2023-05-24T00:04:51;99506.36;;;14.18;100.00
11413;BME280;5762;43.256;26.960;2023-05-24T00:07:20;99498.67;;;14.20;100.00
11413;BME280;5762;43.256;26.960;2023-05-24T00:09:49;99491.27;;;14.21;100.00
11413;BME280;5762;43.256;26.960;2023-05-24T00:12:17;99485.25;;;14.15;100.00
11413;BME280;5762;43.256;26.960;2023-05-24T00:14:46;99489.09;;;14.14;100.00
11413;BME280;5762;43.256;26.960;2023-05-24T00:17:15;99487.59;;;14.11;100.00
11413;BME280;5762;43.256;26.960;2023-05-24T00:19:44;99496.93;;;14.16;100.00
11413;BME280;5762;43.256;26.960;2023-05-24T00:22:13;99493.36;;;14.09;100.00
11413;BME280;5762;43.256;26.960;2023-05-24T00:24:42;99488.98;;;14.02;100.00
11413;BME280;5762;43.256;26.960;2023-05-24T00:27:10;99487.77;;;14.05;100.00
11413;BME280;5762;43.256;26.960;2023-05-24T00:29:39;99488.42;;;14.02;100.00
11413;BME280;5762;43.256;26.960;2023-05-24T00:32:08;99493.62;;;14.01;100.00
11413;BME280;5762;43.256;26.960;2023-05-24T00:34:37;99495.92;;;14.05;100.00
11413;BME280;5762;43.256;26.960;2023-05-24T00:37:05;99502.58;;;14.02;100.00
11413;BME280;5762;43.256;26.960;2023-05-24T00:39:34;99506.45;;;13.92;100.00
11413;BME280;5762;43.256;26.960;2023-05-24T00:42:02;99501.61;;;13.60;100.00
11413;BME280;5762;43.256;26.960;2023-05-24T00:44:30;99495.52;;;13.22;100.00
11413;BME280;5762;43.256;26.960;2023-05-24T00:46:59;99504.06;;;13.09;100.00
11413;BME280;5762;43.256;26.960;2023-05-24T00:49:29;99507.50;;;13.04;100.00
11413;BME280;5762;43.256;26.960;2023-05-24T00:51:57;99500.95;;;13.05;100.00
11413;BME280;5762;43.256;26.960;2023-05-24T00:54:27;99498.71;;;13.07;100.00
11413;BME280;5762;43.256;26.960;2023-05-24T00:56:56;99498.47;;;13.06;100.00
11413;BME280;5762;43.256;26.960;2023-05-24T00:59:25;99500.86;;;12.99;100.00
11413;BME280;5762;43.256;26.960;2023-05-24T01:01:54;99497.09;;;12.89;100.00
11413;BME280;5762;43.256;26.960;2023-05-24T01:04:23;99495.66;;;12.83;100.00
11413;BME280;5762;43.256;26.960;2023-05-24T01:09:26;99484.41;;;12.78;100.00
11413;BME280;5762;43.256;26.960;2023-05-24T01:12:32;99492.44;;;12.55;100.00
11413;BME280;5762;43.256;26.960;2023-05-24T01:27:31;99493.95;;;11.93;100.00
11413;BME280;5762;43.256;26.960;2023-05-24T01:29:59;99500.53;;;12.00;100.00
11413;BME280;5762;43.256;26.960;2023-05-24T01:32:30;99502.16;;;12.10;100.00
11413;BME280;5762;43.256;26.960;2023-05-24T01:34:59;99498.41;;;12.17;100.00
11413;BME280;5762;43.256;26.960;2023-05-24T01:37:28;99501.41;;;12.27;100.00
11413;BME280;5762;43.256;26.960;2023-05-24T01:39:57;99504.46;;;12.34;100.00
11413;BME280;5762;43.256;26.960;2023-05-24T01:42:27;99514.06;;;12.40;100.00
11413;BME280;5762;43.256;26.960;2023-05-24T01:50:02;99523.53;;;12.31;100.00
11413;BME280;5762;43.256;26.960;2023-05-24T01:52:30;99526.20;;;12.43;100.00
11413;BME280;5762;43.256;26.960;2023-05-24T01:55:00;99536.11;;;12.56;100.00
11413;BME280;5762;43.256;26.960;2023-05-24T01:57:29;99529.73;;;12.60;100.00
11413;BME280;5762;43.256;26.960;2023-05-24T01:59:59;99535.41;;;12.61;100.00
11413;BME280;5762;43.256;26.960;2023-05-24T02:02:28;99535.56;;;12.56;100.00
11413;BME280;5762;43.256;26.960;2023-05-24T02:04:57;99533.72;;;12.54;100.00
11413;BME280;5762;43.256;26.960;2023-05-24T02:07:26;99531.73;;;12.57;100.00
11413;BME280;5762;43.256;26.960;2023-05-24T02:09:55;99535.56;;;12.56;100.00
11413;BME280;5762;43.256;26.960;2023-05-24T02:12:24;99537.55;;;12.53;100.00
11413;BME280;5762;43.256;26.960;2023-05-24T02:14:53;99537.23;;;12.55;100.00
11413;BME280;5762;43.256;26.960;2023-05-24T02:17:21;99538.90;;;12.53;100.00
11413;BME280;5762;43.256;26.960;2023-05-24T02:19:51;99543.67;;;12.48;100.00
11413;BME280;5762;43.256;26.960;2023-05-24T02:22:19;99544.64;;;12.52;100.00
11413;BME280;5762;43.256;26.960;2023-05-24T02:24:48;99544.89;;;12.53;100.00
11413;BME280;5762;43.256;26.960;2023-05-24T02:27:17;99542.17;;;12.53;100.00
11413;BME280;5762;43.256;26.960;2023-05-24T02:29:45;99545.76;;;12.51;100.00
11413;BME280;5762;43.256;26.960;2023-05-24T02:32:14;99545.76;;;12.51;100.00
11413;BME280;5762;43.256;26.960;2023-05-24T02:34:42;99543.60;;;12.50;100.00
11413;BME280;5762;43.256;26.960;2023-05-24T02:37:10;99549.09;;;12.48;100.00
11413;BME280;5762;43.256;26.960;2023-05-24T02:39:40;99556.86;;;12.43;100.00
11413;BME280;5762;43.256;26.960;2023-05-24T02:42:09;99559.81;;;12.44;100.00
11413;BME280;5762;43.256;26.960;2023-05-24T02:44:38;99568.41;;;12.37;100.00
11413;BME280;5762;43.256;26.960;2023-05-24T02:47:07;99574.84;;;12.30;100.00
11413;BME280;5762;43.256;26.960;2023-05-24T02:49:36;99575.36;;;12.21;100.00
11413;BME280;5762;43.256;26.960;2023-05-24T02:52:05;99578.52;;;12.15;100.00
11413;BME280;5762;43.256;26.960;2023-05-24T02:54:33;99580.66;;;12.06;100.00
11413;BME280;5762;43.256;26.960;2023-05-24T02:57:02;99590.15;;;12.06;100.00
11413;BME280;5762;43.256;26.960;2023-05-24T02:59:31;99595.70;;;12.01;100.00
11413;BME280;5762;43.256;26.960;2023-05-24T03:02:00;99598.97;;;12.01;100.00
11413;BME280;5762;43.256;26.960;2023-05-24T03:04:28;99606.84;;;12.11;100.00
11413;BME280;5762;43.256;26.960;2023-05-24T03:06:57;99613.53;;;12.14;100.00
11413;BME280;5762;43.256;26.960;2023-05-24T03:09:26;99610.69;;;12.19;100.00
11413;BME280;5762;43.256;26.960;2023-05-24T03:11:58;99617.97;;;12.21;100.00
11413;BME280;5762;43.256;26.960;2023-05-24T03:14:26;99620.55;;;12.26;100.00
11413;BME280;5762;43.256;26.960;2023-05-24T03:16:55;99632.94;;;12.29;100.00
11413;BME280;5762;43.256;26.960;2023-05-24T03:19:24;99634.66;;;12.36;100.00
11413;BME280;5762;43.256;26.960;2023-05-24T03:21:53;99638.91;;;12.40;100.00
11413;BME280;5762;43.256;26.960;2023-05-24T03:24:21;99639.64;;;12.43;100.00
11413;BME280;5762;43.256;26.960;2023-05-24T03:26:51;99645.39;;;12.50;100.00
11413;BME280;5762;43.256;26.960;2023-05-24T03:29:19;99652.67;;;12.52;100.00
11413;BME280;5762;43.256;26.960;2023-05-24T03:31:48;99656.67;;;12.55;100.00
11413;BME280;5762;43.256;26.960;2023-05-24T03:34:16;99660.23;;;12.64;100.00
11413;BME280;5762;43.256;26.960;2023-05-24T03:36:45;99666.70;;;12.65;100.00
11413;BME280;5762;43.256;26.960;2023-05-24T03:39:14;99669.22;;;12.73;100.00
11413;BME280;5762;43.256;26.960;2023-05-24T03:41:43;99677.92;;;12.72;100.00
11413;BME280;5762;43.256;26.960;2023-05-24T03:44:12;99679.88;;;12.81;100.00
11413;BME280;5762;43.256;26.960;2023-05-24T03:46:40;99684.97;;;12.82;100.00
11413;BME280;5762;43.256;26.960;2023-05-24T03:49:08;99686.98;;;12.88;100.00
11413;BME280;5762;43.256;26.960;2023-05-24T03:51:36;99688.09;;;12.87;100.00
11413;BME280;5762;43.256;26.960;2023-05-24T03:54:05;99693.70;;;12.90;100.00
11413;BME280;5762;43.256;26.960;2023-05-24T03:56:33;99692.28;;;12.93;100.00
11413;BME280;5762;43.256;26.960;2023-05-24T03:59:02;99693.42;;;13.00;100.00
11413;BME280;5762;43.256;26.960;2023-05-24T04:01:31;99690.39;;;13.02;100.00
11413;BME280;5762;43.256;26.960;2023-05-24T04:04:00;99688.09;;;13.06;100.00
11413;BME280;5762;43.256;26.960;2023-05-24T04:06:29;99685.94;;;13.06;100.00
11413;BME280;5762;43.256;26.960;2023-05-24T04:08:58;99685.27;;;13.20;100.00
11413;BME280;5762;43.256;26.960;2023-05-24T04:11:27;99681.74;;;13.20;100.00
11413;BME280;5762;43.256;26.960;2023-05-24T04:13:55;99671.53;;;13.17;100.00
11413;BME280;5762;43.256;26.960;2023-05-24T04:16:27;99672.55;;;13.18;100.00
11413;BME280;5762;43.256;26.960;2023-05-24T04:18:56;99660.02;;;13.28;100.00
11413;BME280;5762;43.256;26.960;2023-05-24T04:21:26;99650.03;;;13.26;100.00
11413;BME280;5762;43.256;26.960;2023-05-24T04:23:55;99651.94;;;13.26;100.00
11413;BME280;5762;43.256;26.960;2023-05-24T04:26:24;99653.80;;;13.36;100.00
11413;BME280;5762;43.256;26.960;2023-05-24T04:28:52;99650.05;;;13.35;100.00
11413;BME280;5762;43.256;26.960;2023-05-24T04:31:21;99655.16;;;13.36;100.00
11413;BME280;5762;43.256;26.960;2023-05-24T04:33:49;99654.77;;;13.40;100.00
11413;BME280;5762;43.256;26.960;2023-05-24T04:36:18;99661.08;;;13.38;100.00
11413;BME280;5762;43.256;26.960;2023-05-24T04:38:47;99660.37;;;13.44;100.00
11413;BME280;5762;43.256;26.960;2023-05-24T04:41:16;99666.20;;;13.40;100.00
11413;BME280;5762;43.256;26.960;2023-05-24T04:43:45;99667.48;;;13.43;100.00
11413;BME280;5762;43.256;26.960;2023-05-24T04:46:14;99665.09;;;13.50;100.00
11413;BME280;5762;43.256;26.960;2023-05-24T04:48:42;99660.83;;;13.55;100.00
11413;BME280;5762;43.256;26.960;2023-05-24T04:51:11;99672.13;;;13.51;100.00
11413;BME280;5762;43.256;26.960;2023-05-24T04:53:40;99667.00;;;13.40;100.00
11413;BME280;5762;43.256;26.960;2023-05-24T04:56:09;99671.78;;;13.52;100.00
11413;BME280;5762;43.256;26.960;2023-05-24T04:58:37;99673.00;;;13.66;100.00
11413;BME280;5762;43.256;26.960;2023-05-24T05:01:06;99677.41;;;13.73;100.00
11413;BME280;5762;43.256;26.960;2023-05-24T05:03:35;99676.77;;;13.76;100.00
11413;BME280;5762;43.256;26.960;2023-05-24T05:06:04;99680.05;;;13.84;100.00
11413;BME280;5762;43.256;26.960;2023-05-24T05:08:32;99669.53;;;13.97;100.00
11413;BME280;5762;43.256;26.960;2023-05-24T05:11:01;99672.97;;;14.00;100.00
11413;BME280;5762;43.256;26.960;2023-05-24T05:13:30;99668.25;;;13.95;100.00
11413;BME280;5762;43.256;26.960;2023-05-24T05:16:00;99666.49;;;13.99;100.00
11413;BME280;5762;43.256;26.960;2023-05-24T05:18:28;99674.16;;;14.14;100.00
11413;BME280;5762;43.256;26.960;2023-05-24T05:20:57;99677.97;;;14.22;100.00
11413;BME280;5762;43.256;26.960;2023-05-24T05:23:26;99680.92;;;14.23;100.00
11413;BME280;5762;43.256;26.960;2023-05-24T05:25:55;99675.79;;;14.30;100.00
11413;BME280;5762;43.256;26.960;2023-05-24T05:28:24;99679.86;;;14.38;100.00
11413;BME280;5762;43.256;26.960;2023-05-24T05:30:52;99675.95;;;14.42;100.00
11413;BME280;5762;43.256;26.960;2023-05-24T05:33:21;99669.21;;;14.48;100.00
11413;BME280;5762;43.256;26.960;2023-05-24T05:35:50;99670.09;;;14.46;100.00
11413;BME280;5762;43.256;26.960;2023-05-24T05:38:19;99676.42;;;14.67;100.00
11413;BME280;5762;43.256;26.960;2023-05-24T05:40:48;99671.89;;;14.80;100.00
11413;BME280;5762;43.256;26.960;2023-05-24T05:43:17;99667.47;;;14.82;100.00
11413;BME280;5762;43.256;26.960;2023-05-24T05:45:45;99666.80;;;14.99;100.00
11413;BME280;5762;43.256;26.960;2023-05-24T05:48:13;99661.73;;;15.19;100.00
11413;BME280;5762;43.256;26.960;2023-05-24T05:50:42;99656.28;;;15.04;100.00
11413;BME280;5762;43.256;26.960;2023-05-24T05:53:11;99646.78;;;15.10;100.00
11413;BME280;5762;43.256;26.960;2023-05-24T05:55:40;99643.36;;;15.28;100.00
11413;BME280;5762;43.256;26.960;2023-05-24T05:58:09;99634.03;;;15.43;100.00
11413;BME280;5762;43.256;26.960;2023-05-24T06:00:38;99627.32;;;15.62;100.00
11413;BME280;5762;43.256;26.960;2023-05-24T06:03:08;99619.03;;;15.64;100.00
11413;BME280;5762;43.256;26.960;2023-05-24T06:05:36;99610.19;;;15.67;100.00
11413;BME280;5762;43.256;26.960;2023-05-24T06:08:05;99587.75;;;15.95;100.00
11413;BME280;5762;43.256;26.960;2023-05-24T06:10:34;99574.38;;;16.14;100.00
11413;BME280;5762;43.256;26.960;2023-05-24T06:13:02;99553.80;;;16.35;100.00
11413;BME280;5762;43.256;26.960;2023-05-24T06:15:31;99537.98;;;16.53;100.00
11413;BME280;5762;43.256;26.960;2023-05-24T06:18:00;99525.91;;;16.78;100.00
11413;BME280;5762;43.256;26.960;2023-05-24T06:20:28;99513.16;;;17.16;100.00
11413;BME280;5762;43.256;26.960;2023-05-24T06:22:57;99500.14;;;17.47;100.00
11413;BME280;5762;43.256;26.960;2023-05-24T06:25:26;99483.00;;;17.78;100.00
11413;BME280;5762;43.256;26.960;2023-05-24T06:27:56;99470.47;;;17.93;100.00
11413;BME280;5762;43.256;26.960;2023-05-24T06:30:24;99461.77;;;17.97;100.00
11413;BME280;5762;43.256;26.960;2023-05-24T06:32:53;99463.49;;;17.95;100.00
11413;BME280;5762;43.256;26.960;2023-05-24T06:35:22;99452.54;;;17.95;100.00
11413;BME280;5762;43.256;26.960;2023-05-24T06:37:51;99450.83;;;18.06;100.00
11413;BME280;5762;43.256;26.960;2023-05-24T06:40:19;99451.22;;;18.15;100.00
11413;BME280;5762;43.256;26.960;2023-05-24T06:42:48;99443.18;;;18.22;100.00
11413;BME280;5762;43.256;26.960;2023-05-24T06:45:17;99435.89;;;18.20;100.00
11413;BME280;5762;43.256;26.960;2023-05-24T06:47:46;99433.73;;;18.19;100.00
11413;BME280;5762;43.256;26.960;2023-05-24T06:50:15;99428.36;;;18.42;100.00
11413;BME280;5762;43.256;26.960;2023-05-24T06:52:44;99428.10;;;18.57;100.00
11413;BME280;5762;43.256;26.960;2023-05-24T06:55:12;99423.59;;;18.74;100.00
11413;BME280;5762;43.256;26.960;2023-05-24T06:57:41;99416.81;;;18.97;100.00
11413;BME280;5762;43.256;26.960;2023-05-24T07:00:10;99410.70;;;19.26;100.00
11413;BME280;5762;43.256;26.960;2023-05-24T07:02:38;99412.52;;;19.61;100.00
11413;BME280;5762;43.256;26.960;2023-05-24T07:05:07;99419.88;;;20.02;100.00
11413;BME280;5762;43.256;26.960;2023-05-24T07:07:41;99418.48;;;20.29;100.00
11413;BME280;5762;43.256;26.960;2023-05-24T07:10:09;99412.44;;;20.43;100.00
11413;BME280;5762;43.256;26.960;2023-05-24T07:12:38;99415.94;;;20.56;100.00
11413;BME280;5762;43.256;26.960;2023-05-24T07:15:08;99409.74;;;20.80;100.00
11413;BME280;5762;43.256;26.960;2023-05-24T07:17:37;99411.75;;;20.83;100.00
11413;BME280;5762;43.256;26.960;2023-05-24T07:20:06;99411.58;;;20.85;100.00
11413;BME280;5762;43.256;26.960;2023-05-24T07:22:39;99410.76;;;20.98;100.00
11413;BME280;5762;43.256;26.960;2023-05-24T07:25:09;99408.77;;;21.15;100.00
11413;BME280;5762;43.256;26.960;2023-05-24T07:27:37;99408.75;;;21.28;100.00
11413;BME280;5762;43.256;26.960;2023-05-24T07:30:06;99405.23;;;21.52;100.00
11413;BME280;5762;43.256;26.960;2023-05-24T07:32:35;99408.94;;;21.46;100.00
11413;BME280;5762;43.256;26.960;2023-05-24T07:35:04;99405.98;;;21.69;100.00
11413;BME280;5762;43.256;26.960;2023-05-24T07:37:34;99411.18;;;21.78;100.00
11413;BME280;5762;43.256;26.960;2023-05-24T07:40:03;99408.55;;;21.95;100.00
11413;BME280;5762;43.256;26.960;2023-05-24T07:42:31;99415.41;;;22.12;100.00
11413;BME280;5762;43.256;26.960;2023-05-24T07:45:00;99410.03;;;22.37;100.00
11413;BME280;5762;43.256;26.960;2023-05-24T07:47:28;99408.34;;;22.49;100.00
11413;BME280;5762;43.256;26.960;2023-05-24T07:49:57;99414.64;;;22.53;100.00
11413;BME280;5762;43.256;26.960;2023-05-24T07:52:26;99410.34;;;22.59;100.00
11413;BME280;5762;43.256;26.960;2023-05-24T07:54:55;99413.70;;;22.62;100.00
11413;BME280;5762;43.256;26.960;2023-05-24T07:57:23;99420.19;;;22.60;100.00
11413;BME280;5762;43.256;26.960;2023-05-24T07:59:52;99419.50;;;22.78;100.00
11413;BME280;5762;43.256;26.960;2023-05-24T08:02:20;99411.70;;;22.97;100.00
11413;BME280;5762;43.256;26.960;2023-05-24T08:04:49;99417.28;;;23.22;100.00
11413;BME280;5762;43.256;26.960;2023-05-24T08:07:18;99415.81;;;23.53;100.00
11413;BME280;5762;43.256;26.960;2023-05-24T08:09:47;99393.70;;;23.71;100.00
11413;BME280;5762;43.256;26.960;2023-05-24T08:12:16;99391.14;;;23.83;100.00
11413;BME280;5762;43.256;26.960;2023-05-24T08:14:45;99383.01;;;24.12;100.00
11413;BME280;5762;43.256;26.960;2023-05-24T08:17:13;99387.90;;;24.41;100.00
11413;BME280;5762;43.256;26.960;2023-05-24T08:19:45;99428.86;;;24.85;100.00
11413;BME280;5762;43.256;26.960;2023-05-24T08:22:14;99440.84;;;25.08;100.00
11413;BME280;5762;43.256;26.960;2023-05-24T08:24:43;99441.21;;;25.14;100.00
11413;BME280;5762;43.256;26.960;2023-05-24T08:27:11;99435.64;;;25.21;100.00
11413;BME280;5762;43.256;26.960;2023-05-24T08:29:40;99436.30;;;25.06;100.00
11413;BME280;5762;43.256;26.960;2023-05-24T08:32:09;99432.17;;;24.99;100.00
11413;BME280;5762;43.256;26.960;2023-05-24T08:34:38;99426.17;;;25.15;100.00
11413;BME280;5762;43.256;26.960;2023-05-24T08:37:07;99432.45;;;25.55;100.00
11413;BME280;5762;43.256;26.960;2023-05-24T08:39:36;99435.16;;;25.66;100.00
11413;BME280;5762;43.256;26.960;2023-05-24T08:42:05;99437.02;;;26.05;100.00
11413;BME280;5762;43.256;26.960;2023-05-24T08:44:40;99433.93;;;26.19;100.00
11413;BME280;5762;43.256;26.960;2023-05-24T08:47:04;99438.34;;;26.35;100.00
11413;BME280;5762;43.256;26.960;2023-05-24T08:49:34;99434.20;;;26.54;100.00
11413;BME280;5762;43.256;26.960;2023-05-24T08:52:03;99441.48;;;26.75;100.00
11413;BME280;5762;43.256;26.960;2023-05-24T08:54:35;99439.82;;;26.81;100.00
11413;BME280;5762;43.256;26.960;2023-05-24T08:57:04;99442.22;;;26.79;100.00
11413;BME280;5762;43.256;26.960;2023-05-24T08:59:34;99433.62;;;26.85;100.00
11413;BME280;5762;43.256;26.960;2023-05-24T09:02:02;99442.91;;;27.05;100.00
11413;BME280;5762;43.256;26.960;2023-05-24T09:04:32;99439.30;;;27.08;100.00
11413;BME280;5762;43.256;26.960;2023-05-24T09:07:01;99433.75;;;27.08;100.00
11413;BME280;5762;43.256;26.960;2023-05-24T09:09:30;99435.66;;;26.81;100.00
11413;BME280;5762;43.256;26.960;2023-05-24T09:12:01;99437.73;;;27.22;100.00
11413;BME280;5762;43.256;26.960;2023-05-24T09:14:30;99433.41;;;26.53;100.00
11413;BME280;5762;43.256;26.960;2023-05-24T09:16:58;99432.72;;;26.42;100.00
11413;BME280;5762;43.256;26.960;2023-05-24T09:19:27;99426.70;;;26.06;100.00
11413;BME280;5762;43.256;26.960;2023-05-24T09:21:55;99426.81;;;25.69;100.00
11413;BME280;5762;43.256;26.960;2023-05-24T09:24:24;99422.73;;;26.29;100.00
11413;BME280;5762;43.256;26.960;2023-05-24T09:26:53;99421.28;;;26.89;100.00
11413;BME280;5762;43.256;26.960;2023-05-24T09:29:22;99423.84;;;27.07;100.00
11413;BME280;5762;43.256;26.960;2023-05-24T09:31:51;99416.00;;;26.49;100.00
11413;BME280;5762;43.256;26.960;2023-05-24T09:34:20;99421.55;;;26.49;100.00
11413;BME280;5762;43.256;26.960;2023-05-24T09:36:48;99423.77;;;26.46;100.00
11413;BME280;5762;43.256;26.960;2023-05-24T09:39:18;99421.77;;;26.05;100.00
11413;BME280;5762;43.256;26.960;2023-05-24T09:41:51;99416.69;;;26.19;100.00
11413;BME280;5762;43.256;26.960;2023-05-24T09:44:16;99411.98;;;25.68;100.00
11413;BME280;5762;43.256;26.960;2023-05-24T09:46:45;99412.72;;;25.46;100.00
11413;BME280;5762;43.256;26.960;2023-05-24T09:49:14;99401.27;;;25.11;100.00
11413;BME280;5762;43.256;26.960;2023-05-24T09:51:47;99402.20;;;25.20;100.00
11413;BME280;5762;43.256;26.960;2023-05-24T09:54:13;99408.58;;;25.43;100.00
11413;BME280;5762;43.256;26.960;2023-05-24T09:56:42;99402.71;;;25.89;100.00
11413;BME280;5762;43.256;26.960;2023-05-24T09:59:12;99397.98;;;26.30;100.00
11413;BME280;5762;43.256;26.960;2023-05-24T10:01:41;99406.84;;;26.52;100.00
11413;BME280;5762;43.256;26.960;2023-05-24T10:04:09;99404.55;;;26.78;100.00
11413;BME280;5762;43.256;26.960;2023-05-24T10:06:40;99415.80;;;27.01;100.00
11413;BME280;5762;43.256;26.960;2023-05-24T10:09:08;99402.81;;;27.21;100.00
11413;BME280;5762;43.256;26.960;2023-05-24T10:11:38;99409.84;;;26.84;100.00
11413;BME280;5762;43.256;26.960;2023-05-24T10:14:08;99405.59;;;27.06;100.00
11413;BME280;5762;43.256;26.960;2023-05-24T10:16:37;99406.72;;;27.78;100.00
11413;BME280;5762;43.256;26.960;2023-05-24T10:19:07;99402.05;;;28.18;100.00
11413;BME280;5762;43.256;26.960;2023-05-24T10:21:38;99404.39;;;28.43;100.00
11413;BME280;5762;43.256;26.960;2023-05-24T10:24:07;99402.38;;;28.75;100.00
11413;BME280;5762;43.256;26.960;2023-05-24T10:26:36;99399.16;;;28.96;100.00
11413;BME280;5762;43.256;26.960;2023-05-24T10:29:06;99400.66;;;28.61;100.00
11413;BME280;5762;43.256;26.960;2023-05-24T10:31:36;99406.84;;;28.41;100.00
11413;BME280;5762;43.256;26.960;2023-05-24T10:34:04;99401.36;;;27.67;100.00
11413;BME280;5762;43.256;26.960;2023-05-24T10:36:34;99406.23;;;27.17;100.00
11413;BME280;5762;43.256;26.960;2023-05-24T10:39:06;99415.90;;;26.19;100.00
11413;BME280;5762;43.256;26.960;2023-05-24T10:41:40;99431.55;;;25.07;100.00
11413;BME280;5762;43.256;26.960;2023-05-24T10:44:09;99426.02;;;24.52;100.00
11413;BME280;5762;43.256;26.960;2023-05-24T10:49:25;99418.75;;;23.58;100.00
11413;BME280;5762;43.256;26.960;2023-05-24T10:52:07;99407.52;;;23.64;100.00
11413;BME280;5762;43.256;26.960;2023-05-24T10:54:35;99414.03;;;23.65;100.00
11413;BME280;5762;43.256;26.960;2023-05-24T10:57:05;99373.16;;;23.51;100.00
11413;BME280;5762;43.256;26.960;2023-05-24T10:59:35;99339.39;;;23.12;100.00
11413;BME280;5762;43.256;26.960;2023-05-24T11:02:11;99348.44;;;23.02;100.00
11413;BME280;5762;43.256;26.960;2023-05-24T11:04:37;99368.50;;;22.81;100.00
11413;BME280;5762;43.256;26.960;2023-05-24T11:07:06;99377.23;;;22.59;100.00
11413;BME280;5762;43.256;26.960;2023-05-24T11:09:39;99390.08;;;22.27;100.00
11413;BME280;5762;43.256;26.960;2023-05-24T11:12:13;99389.73;;;21.77;100.00
11413;BME280;5762;43.256;26.960;2023-05-24T11:14:46;99394.52;;;21.39;100.00
11413;BME280;5762;43.256;26.960;2023-05-24T11:17:15;99392.50;;;20.99;100.00
11413;BME280;5762;43.256;26.960;2023-05-24T11:19:54;99394.00;;;20.93;100.00
11413;BME280;5762;43.256;26.960;2023-05-24T11:22:15;99397.47;;;20.70;100.00
11413;BME280;5762;43.256;26.960;2023-05-24T11:24:44;99386.86;;;20.55;100.00
11413;BME280;5762;43.256;26.960;2023-05-24T11:27:14;99382.86;;;20.23;100.00
11413;BME280;5762;43.256;26.960;2023-05-24T11:29:44;99373.88;;;20.13;100.00
11413;BME280;5762;43.256;26.960;2023-05-24T11:32:17;99386.35;;;20.20;100.00
11413;BME280;5762;43.256;26.960;2023-05-24T11:34:46;99393.22;;;20.33;100.00
11413;BME280;5762;43.256;26.960;2023-05-24T11:37:15;99405.64;;;20.36;100.00
11413;BME280;5762;43.256;26.960;2023-05-24T11:39:48;99406.37;;;20.47;100.00
11413;BME280;5762;43.256;26.960;2023-05-24T11:42:14;99417.30;;;20.39;100.00
11413;BME280;5762;43.256;26.960;2023-05-24T11:44:43;99426.62;;;20.35;100.00
11413;BME280;5762;43.256;26.960;2023-05-24T11:47:12;99441.39;;;19.87;100.00
11413;BME280;5762;43.256;26.960;2023-05-24T11:49:41;99455.76;;;19.35;100.00
11413;BME280;5762;43.256;26.960;2023-05-24T11:52:14;99469.43;;;18.93;100.00
11413;BME280;5762;43.256;26.960;2023-05-24T11:54:43;99482.89;;;18.72;100.00
11413;BME280;5762;43.256;26.960;2023-05-24T11:57:12;99483.48;;;18.82;100.00
11413;BME280;5762;43.256;26.960;2023-05-24T11:59:41;99489.96;;;18.73;100.00
11413;BME280;5762;43.256;26.960;2023-05-24T12:02:10;99480.67;;;18.68;100.00
11413;BME280;5762;43.256;26.960;2023-05-24T12:04:39;99479.74;;;18.90;100.00
11413;BME280;5762;43.256;26.960;2023-05-24T12:07:11;99479.53;;;18.98;100.00
11413;BME280;5762;43.256;26.960;2023-05-24T12:09:40;99471.88;;;18.88;100.00
11413;BME280;5762;43.256;26.960;2023-05-24T12:12:08;99469.77;;;18.82;100.00
11413;BME280;5762;43.256;26.960;2023-05-24T12:14:36;99466.17;;;18.68;100.00
11413;BME280;5762;43.256;26.960;2023-05-24T12:17:08;99460.42;;;18.57;100.00
11413;BME280;5762;43.256;26.960;2023-05-24T12:19:36;99463.98;;;18.42;100.00
11413;BME280;5762;43.256;26.960;2023-05-24T12:22:05;99465.05;;;18.28;100.00
11413;BME280;5762;43.256;26.960;2023-05-24T12:24:36;99467.70;;;18.08;100.00
11413;BME280;5762;43.256;26.960;2023-05-24T12:27:04;99465.05;;;18.12;100.00
11413;BME280;5762;43.256;26.960;2023-05-24T12:29:34;99446.81;;;18.10;100.00
11413;BME280;5762;43.256;26.960;2023-05-24T12:32:04;99439.88;;;18.06;100.00
11413;BME280;5762;43.256;26.960;2023-05-24T12:34:33;99435.67;;;18.19;100.00
11413;BME280;5762;43.256;26.960;2023-05-24T12:37:02;99427.56;;;18.32;100.00
11413;BME280;5762;43.256;26.960;2023-05-24T12:39:30;99416.91;;;18.46;100.00
11413;BME280;5762;43.256;26.960;2023-05-24T12:41:59;99419.49;;;18.64;100.00
11413;BME280;5762;43.256;26.960;2023-05-24T12:44:29;99404.01;;;19.14;100.00
11413;BME280;5762;43.256;26.960;2023-05-24T12:46:57;99411.70;;;19.83;100.00
11413;BME280;5762;43.256;26.960;2023-05-24T12:49:25;99393.89;;;20.53;100.00
11413;BME280;5762;43.256;26.960;2023-05-24T12:51:54;99377.99;;;20.86;100.00
11413;BME280;5762;43.256;26.960;2023-05-24T12:54:24;99358.86;;;21.17;100.00
11413;BME280;5762;43.256;26.960;2023-05-24T12:56:52;99342.45;;;21.71;100.00
11413;BME280;5762;43.256;26.960;2023-05-24T12:59:22;99323.34;;;22.31;100.00
11413;BME280;5762;43.256;26.960;2023-05-24T13:01:50;99312.78;;;22.47;100.00
11413;BME280;5762;43.256;26.960;2023-05-24T13:04:19;99314.16;;;23.17;100.00
11413;BME280;5762;43.256;26.960;2023-05-24T13:06:49;99302.13;;;23.62;100.00
11413;BME280;5762;43.256;26.960;2023-05-24T13:09:17;99309.81;;;23.84;100.00
11413;BME280;5762;43.256;26.960;2023-05-24T13:11:45;99300.24;;;24.17;100.00
11413;BME280;5762;43.256;26.960;2023-05-24T13:14:14;99305.46;;;24.88;100.00
11413;BME280;5762;43.256;26.960;2023-05-24T13:16:44;99334.34;;;25.46;100.00
11413;BME280;5762;43.256;26.960;2023-05-24T13:19:13;99353.14;;;25.72;100.00
11413;BME280;5762;43.256;26.960;2023-05-24T13:21:41;99373.39;;;26.29;100.00
11413;BME280;5762;43.256;26.960;2023-05-24T13:24:11;99374.59;;;26.31;100.00